sensor_id;sensor_type;location;lat;lon;timestamp;P1;durP1;ratioP1;P2;durP2;ratioP2
63653;SDS011;49809;47.418;19.080;2023-05-07T00:00:52;9.93;;;5.47;;
63653;SDS011;49809;47.418;19.080;2023-05-07T00:04:19;12.55;;;6.07;;
63653;SDS011;49809;47.418;19.080;2023-05-07T00:07:25;9.07;;;6.15;;
63653;SDS011;49809;47.418;19.080;2023-05-07T00:11:09;7.50;;;5.53;;
63653;SDS011;49809;47.418;19.080;2023-05-07T00:14:17;9.35;;;5.37;;
63653;SDS011;49809;47.418;19.080;2023-05-07T00:17:26;7.97;;;5.28;;
63653;SDS011;49809;47.418;19.080;2023-05-07T00:20:31;11.15;;;5.50;;
63653;SDS011;49809;47.418;19.080;2023-05-07T00:23:54;9.25;;;6.28;;
63653;SDS011;49809;47.418;19.080;2023-05-07T00:27:39;10.13;;;5.95;;
63653;SDS011;49809;47.418;19.080;2023-05-07T00:30:59;9.75;;;6.10;;
63653;SDS011;49809;47.418;19.080;2023-05-07T00:34:31;10.90;;;6.60;;
63653;SDS011;49809;47.418;19.080;2023-05-07T00:37:55;11.63;;;5.65;;
63653;SDS011;49809;47.418;19.080;2023-05-07T00:41:39;10.20;;;5.53;;
63653;SDS011;49809;47.418;19.080;2023-05-07T00:44:46;9.85;;;5.43;;
63653;SDS011;49809;47.418;19.080;2023-05-07T00:48:23;12.13;;;6.18;;
63653;SDS011;49809;47.418;19.080;2023-05-07T00:51:42;9.88;;;6.10;;
63653;SDS011;49809;47.418;19.080;2023-05-07T00:54:47;9.68;;;6.25;;
63653;SDS011;49809;47.418;19.080;2023-05-07T00:57:51;9.38;;;5.40;;
63653;SDS011;49809;47.418;19.080;2023-05-07T01:01:20;10.43;;;5.82;;
63653;SDS011;49809;47.418;19.080;2023-05-07T01:04:37;13.10;;;6.05;;
63653;SDS011;49809;47.418;19.080;2023-05-07T01:08:15;9.75;;;5.97;;
63653;SDS011;49809;47.418;19.080;2023-05-07T01:11:50;8.77;;;6.20;;
63653;SDS011;49809;47.418;19.080;2023-05-07T01:15:13;9.50;;;5.82;;
63653;SDS011;49809;47.418;19.080;2023-05-07T01:18:44;9.13;;;5.90;;
63653;SDS011;49809;47.418;19.080;2023-05-07T01:22:09;8.57;;;5.65;;
63653;SDS011;49809;47.418;19.080;2023-05-07T01:25:36;10.82;;;5.78;;
63653;SDS011;49809;47.418;19.080;2023-05-07T01:29:08;10.02;;;6.00;;
63653;SDS011;49809;47.418;19.080;2023-05-07T01:32:40;7.75;;;5.75;;
63653;SDS011;49809;47.418;19.080;2023-05-07T01:36:09;9.13;;;5.62;;
63653;SDS011;49809;47.418;19.080;2023-05-07T01:39:23;8.90;;;5.93;;
63653;SDS011;49809;47.418;19.080;2023-05-07T01:43:04;8.90;;;5.43;;
63653;SDS011;49809;47.418;19.080;2023-05-07T01:46:45;7.65;;;5.35;;
63653;SDS011;49809;47.418;19.080;2023-05-07T01:50:45;8.52;;;5.37;;
63653;SDS011;49809;47.418;19.080;2023-05-07T01:54:26;9.73;;;6.00;;
63653;SDS011;49809;47.418;19.080;2023-05-07T01:57:49;9.15;;;5.62;;
63653;SDS011;49809;47.418;19.080;2023-05-07T02:01:07;6.47;;;4.72;;
63653;SDS011;49809;47.418;19.080;2023-05-07T02:04:32;8.48;;;5.40;;
63653;SDS011;49809;47.418;19.080;2023-05-07T02:08:07;10.85;;;5.50;;
63653;SDS011;49809;47.418;19.080;2023-05-07T02:22:18;8.88;;;4.80;;
63653;SDS011;49809;47.418;19.080;2023-05-07T02:25:22;7.60;;;5.22;;
63653;SDS011;49809;47.418;19.080;2023-05-07T02:29:08;8.52;;;5.30;;
63653;SDS011;49809;47.418;19.080;2023-05-07T02:32:46;9.57;;;5.53;;
63653;SDS011;49809;47.418;19.080;2023-05-07T02:36:28;6.68;;;4.62;;
63653;SDS011;49809;47.418;19.080;2023-05-07T02:39:50;9.43;;;5.22;;
63653;SDS011;49809;47.418;19.080;2023-05-07T02:43:26;7.05;;;4.78;;
63653;SDS011;49809;47.418;19.080;2023-05-07T02:47:01;7.10;;;4.57;;
63653;SDS011;49809;47.418;19.080;2023-05-07T02:50:33;7.72;;;5.32;;
63653;SDS011;49809;47.418;19.080;2023-05-07T02:54:06;8.25;;;4.28;;
63653;SDS011;49809;47.418;19.080;2023-05-07T02:57:42;6.60;;;4.40;;
63653;SDS011;49809;47.418;19.080;2023-05-07T03:01:14;6.80;;;4.53;;
63653;SDS011;49809;47.418;19.080;2023-05-07T03:05:07;5.30;;;4.40;;
63653;SDS011;49809;47.418;19.080;2023-05-07T03:08:44;7.07;;;4.40;;
63653;SDS011;49809;47.418;19.080;2023-05-07T03:12:18;6.75;;;4.25;;
63653;SDS011;49809;47.418;19.080;2023-05-07T03:15:40;6.80;;;4.37;;
63653;SDS011;49809;47.418;19.080;2023-05-07T03:19:28;6.20;;;4.00;;
63653;SDS011;49809;47.418;19.080;2023-05-07T03:22:49;6.45;;;4.30;;
63653;SDS011;49809;47.418;19.080;2023-05-07T03:26:18;7.87;;;4.70;;
63653;SDS011;49809;47.418;19.080;2023-05-07T03:29:46;8.05;;;4.55;;
63653;SDS011;49809;47.418;19.080;2023-05-07T03:33:21;7.45;;;4.65;;
63653;SDS011;49809;47.418;19.080;2023-05-07T03:37:02;6.37;;;3.90;;
63653;SDS011;49809;47.418;19.080;2023-05-07T03:40:39;6.43;;;4.03;;
63653;SDS011;49809;47.418;19.080;2023-05-07T03:44:09;7.62;;;4.28;;
63653;SDS011;49809;47.418;19.080;2023-05-07T03:47:55;5.20;;;3.60;;
63653;SDS011;49809;47.418;19.080;2023-05-07T03:51:27;6.25;;;3.47;;
63653;SDS011;49809;47.418;19.080;2023-05-07T03:54:52;5.75;;;3.90;;
63653;SDS011;49809;47.418;19.080;2023-05-07T04:05:57;7.12;;;4.50;;
63653;SDS011;49809;47.418;19.080;2023-05-07T04:13:08;6.80;;;4.15;;
63653;SDS011;49809;47.418;19.080;2023-05-07T04:27:42;5.70;;;3.40;;
63653;SDS011;49809;47.418;19.080;2023-05-07T04:31:08;6.18;;;4.15;;
63653;SDS011;49809;47.418;19.080;2023-05-07T04:34:55;6.30;;;4.40;;
63653;SDS011;49809;47.418;19.080;2023-05-07T04:38:30;10.57;;;4.50;;
63653;SDS011;49809;47.418;19.080;2023-05-07T04:42:14;7.53;;;4.35;;
63653;SDS011;49809;47.418;19.080;2023-05-07T04:45:33;6.05;;;4.35;;
63653;SDS011;49809;47.418;19.080;2023-05-07T04:48:52;7.05;;;4.68;;
63653;SDS011;49809;47.418;19.080;2023-05-07T04:52:20;7.53;;;4.70;;
63653;SDS011;49809;47.418;19.080;2023-05-07T04:55:58;8.93;;;5.35;;
63653;SDS011;49809;47.418;19.080;2023-05-07T04:59:34;6.72;;;4.97;;
63653;SDS011;49809;47.418;19.080;2023-05-07T05:21:00;8.15;;;6.07;;
63653;SDS011;49809;47.418;19.080;2023-05-07T06:24:50;9.73;;;6.62;;
63653;SDS011;49809;47.418;19.080;2023-05-07T06:28:29;9.50;;;6.18;;
63653;SDS011;49809;47.418;19.080;2023-05-07T06:32:28;9.65;;;6.20;;
63653;SDS011;49809;47.418;19.080;2023-05-07T06:36:10;10.90;;;5.82;;
63653;SDS011;49809;47.418;19.080;2023-05-07T07:23:18;4.35;;;2.30;;
63653;SDS011;49809;47.418;19.080;2023-05-07T07:26:48;3.25;;;2.37;;
63653;SDS011;49809;47.418;19.080;2023-05-07T07:29:52;2.65;;;1.87;;
63653;SDS011;49809;47.418;19.080;2023-05-07T07:32:56;1.75;;;1.48;;
63653;SDS011;49809;47.418;19.080;2023-05-07T07:36:06;2.30;;;1.62;;
63653;SDS011;49809;47.418;19.080;2023-05-07T07:39:11;5.40;;;2.85;;
63653;SDS011;49809;47.418;19.080;2023-05-07T07:42:39;3.53;;;3.03;;
63653;SDS011;49809;47.418;19.080;2023-05-07T07:45:44;5.55;;;3.95;;
63653;SDS011;49809;47.418;19.080;2023-05-07T07:49:15;7.30;;;3.80;;
63653;SDS011;49809;47.418;19.080;2023-05-07T07:52:39;6.15;;;4.37;;
63653;SDS011;49809;47.418;19.080;2023-05-07T07:55:46;5.57;;;3.97;;
63653;SDS011;49809;47.418;19.080;2023-05-07T07:58:50;4.53;;;3.12;;
63653;SDS011;49809;47.418;19.080;2023-05-07T08:01:56;4.65;;;2.72;;
63653;SDS011;49809;47.418;19.080;2023-05-07T08:08:07;3.80;;;2.80;;
63653;SDS011;49809;47.418;19.080;2023-05-07T08:11:11;3.97;;;2.85;;
63653;SDS011;49809;47.418;19.080;2023-05-07T08:14:14;3.83;;;2.58;;
63653;SDS011;49809;47.418;19.080;2023-05-07T08:17:24;3.62;;;2.58;;
63653;SDS011;49809;47.418;19.080;2023-05-07T08:21:07;3.75;;;2.83;;
63653;SDS011;49809;47.418;19.080;2023-05-07T08:24:29;3.55;;;2.72;;
63653;SDS011;49809;47.418;19.080;2023-05-07T08:27:32;3.78;;;2.45;;
63653;SDS011;49809;47.418;19.080;2023-05-07T08:30:36;3.83;;;2.40;;
63653;SDS011;49809;47.418;19.080;2023-05-07T08:33:42;2.90;;;2.40;;
63653;SDS011;49809;47.418;19.080;2023-05-07T08:36:50;5.20;;;2.67;;
63653;SDS011;49809;47.418;19.080;2023-05-07T08:39:54;5.40;;;2.87;;
63653;SDS011;49809;47.418;19.080;2023-05-07T08:43:00;4.00;;;3.15;;
63653;SDS011;49809;47.418;19.080;2023-05-07T08:46:06;3.78;;;3.00;;
63653;SDS011;49809;47.418;19.080;2023-05-07T08:49:58;4.93;;;2.60;;
63653;SDS011;49809;47.418;19.080;2023-05-07T08:53:03;4.22;;;2.85;;
63653;SDS011;49809;47.418;19.080;2023-05-07T08:56:08;4.80;;;2.83;;
63653;SDS011;49809;47.418;19.080;2023-05-07T08:59:11;5.18;;;3.40;;
63653;SDS011;49809;47.418;19.080;2023-05-07T09:02:16;4.35;;;3.70;;
63653;SDS011;49809;47.418;19.080;2023-05-07T09:05:42;5.82;;;3.05;;
63653;SDS011;49809;47.418;19.080;2023-05-07T09:09:21;4.68;;;3.47;;
63653;SDS011;49809;47.418;19.080;2023-05-07T09:12:25;3.92;;;3.15;;
63653;SDS011;49809;47.418;19.080;2023-05-07T09:15:28;6.07;;;3.28;;
63653;SDS011;49809;47.418;19.080;2023-05-07T09:18:32;3.62;;;3.05;;
63653;SDS011;49809;47.418;19.080;2023-05-07T09:21:37;3.72;;;2.58;;
63653;SDS011;49809;47.418;19.080;2023-05-07T09:24:49;3.03;;;2.40;;
63653;SDS011;49809;47.418;19.080;2023-05-07T09:27:56;3.50;;;2.40;;
63653;SDS011;49809;47.418;19.080;2023-05-07T09:31:20;4.22;;;2.85;;
63653;SDS011;49809;47.418;19.080;2023-05-07T09:34:29;4.05;;;3.17;;
63653;SDS011;49809;47.418;19.080;2023-05-07T09:37:33;5.12;;;3.50;;
63653;SDS011;49809;47.418;19.080;2023-05-07T09:40:36;3.45;;;3.15;;
63653;SDS011;49809;47.418;19.080;2023-05-07T09:43:46;3.62;;;3.25;;
63653;SDS011;49809;47.418;19.080;2023-05-07T09:47:23;3.95;;;3.40;;
63653;SDS011;49809;47.418;19.080;2023-05-07T09:50:32;4.87;;;3.58;;
63653;SDS011;49809;47.418;19.080;2023-05-07T09:53:42;4.25;;;3.50;;
63653;SDS011;49809;47.418;19.080;2023-05-07T09:56:50;5.12;;;2.95;;
63653;SDS011;49809;47.418;19.080;2023-05-07T09:59:57;3.17;;;2.70;;
63653;SDS011;49809;47.418;19.080;2023-05-07T10:03:22;4.10;;;3.17;;
63653;SDS011;49809;47.418;19.080;2023-05-07T10:06:57;3.42;;;2.60;;
63653;SDS011;49809;47.418;19.080;2023-05-07T10:10:03;4.20;;;2.25;;
63653;SDS011;49809;47.418;19.080;2023-05-07T10:13:33;2.22;;;2.00;;
63653;SDS011;49809;47.418;19.080;2023-05-07T10:16:41;2.25;;;2.03;;
63653;SDS011;49809;47.418;19.080;2023-05-07T10:19:49;2.75;;;2.40;;
63653;SDS011;49809;47.418;19.080;2023-05-07T10:22:55;2.95;;;2.10;;
63653;SDS011;49809;47.418;19.080;2023-05-07T10:26:02;2.37;;;1.92;;
63653;SDS011;49809;47.418;19.080;2023-05-07T10:32:48;1.67;;;1.52;;
63653;SDS011;49809;47.418;19.080;2023-05-07T10:35:59;4.87;;;2.00;;
63653;SDS011;49809;47.418;19.080;2023-05-07T10:39:08;2.05;;;1.85;;
63653;SDS011;49809;47.418;19.080;2023-05-07T10:42:13;2.05;;;1.75;;
63653;SDS011;49809;47.418;19.080;2023-05-07T10:45:21;2.70;;;2.17;;
63653;SDS011;49809;47.418;19.080;2023-05-07T10:48:25;2.92;;;1.98;;
63653;SDS011;49809;47.418;19.080;2023-05-07T10:51:33;2.80;;;2.20;;
63653;SDS011;49809;47.418;19.080;2023-05-07T10:54:38;2.33;;;2.12;;
63653;SDS011;49809;47.418;19.080;2023-05-07T10:57:44;3.25;;;2.65;;
63653;SDS011;49809;47.418;19.080;2023-05-07T11:00:55;3.35;;;2.58;;
63653;SDS011;49809;47.418;19.080;2023-05-07T11:04:15;4.18;;;2.40;;
63653;SDS011;49809;47.418;19.080;2023-05-07T11:07:26;4.25;;;2.40;;
63653;SDS011;49809;47.418;19.080;2023-05-07T11:13:59;3.37;;;2.33;;
63653;SDS011;49809;47.418;19.080;2023-05-07T11:17:05;2.67;;;2.22;;
63653;SDS011;49809;47.418;19.080;2023-05-07T11:20:11;3.08;;;2.10;;
63653;SDS011;49809;47.418;19.080;2023-05-07T11:27:23;2.78;;;2.20;;
63653;SDS011;49809;47.418;19.080;2023-05-07T11:30:31;3.03;;;2.08;;
63653;SDS011;49809;47.418;19.080;2023-05-07T11:33:34;5.20;;;2.10;;
63653;SDS011;49809;47.418;19.080;2023-05-07T11:36:41;2.65;;;2.17;;
63653;SDS011;49809;47.418;19.080;2023-05-07T11:39:50;2.22;;;1.92;;
63653;SDS011;49809;47.418;19.080;2023-05-07T11:43:13;3.22;;;2.50;;
63653;SDS011;49809;47.418;19.080;2023-05-07T11:46:16;2.25;;;2.05;;
63653;SDS011;49809;47.418;19.080;2023-05-07T11:49:24;2.78;;;2.33;;
63653;SDS011;49809;47.418;19.080;2023-05-07T11:52:29;2.00;;;1.80;;
63653;SDS011;49809;47.418;19.080;2023-05-07T11:55:33;2.85;;;2.20;;
63653;SDS011;49809;47.418;19.080;2023-05-07T11:58:45;1.75;;;1.65;;
63653;SDS011;49809;47.418;19.080;2023-05-07T12:01:49;2.10;;;1.90;;
63653;SDS011;49809;47.418;19.080;2023-05-07T12:04:52;2.08;;;1.80;;
63653;SDS011;49809;47.418;19.080;2023-05-07T12:07:56;1.92;;;1.77;;
63653;SDS011;49809;47.418;19.080;2023-05-07T12:11:00;2.25;;;1.55;;
63653;SDS011;49809;47.418;19.080;2023-05-07T12:14:03;2.50;;;1.85;;
63653;SDS011;49809;47.418;19.080;2023-05-07T12:17:07;2.00;;;1.70;;
63653;SDS011;49809;47.418;19.080;2023-05-07T12:20:15;1.67;;;1.58;;
63653;SDS011;49809;47.418;19.080;2023-05-07T12:23:19;2.12;;;2.00;;
63653;SDS011;49809;47.418;19.080;2023-05-07T12:26:27;1.80;;;1.60;;
63653;SDS011;49809;47.418;19.080;2023-05-07T12:29:30;1.70;;;1.60;;
63653;SDS011;49809;47.418;19.080;2023-05-07T12:32:34;1.95;;;1.60;;
63653;SDS011;49809;47.418;19.080;2023-05-07T12:35:40;1.70;;;1.60;;
63653;SDS011;49809;47.418;19.080;2023-05-07T12:38:45;1.83;;;1.58;;
63653;SDS011;49809;47.418;19.080;2023-05-07T12:41:56;2.00;;;1.80;;
63653;SDS011;49809;47.418;19.080;2023-05-07T12:45:11;1.55;;;1.40;;
63653;SDS011;49809;47.418;19.080;2023-05-07T12:48:19;1.70;;;1.60;;
63653;SDS011;49809;47.418;19.080;2023-05-07T12:51:25;1.60;;;1.50;;
63653;SDS011;49809;47.418;19.080;2023-05-07T12:54:31;1.87;;;1.70;;
63653;SDS011;49809;47.418;19.080;2023-05-07T12:57:45;1.67;;;1.58;;
63653;SDS011;49809;47.418;19.080;2023-05-07T13:01:13;1.50;;;1.40;;
63653;SDS011;49809;47.418;19.080;2023-05-07T13:04:41;1.50;;;1.40;;
63653;SDS011;49809;47.418;19.080;2023-05-07T13:07:52;1.70;;;1.48;;
63653;SDS011;49809;47.418;19.080;2023-05-07T13:11:15;2.85;;;1.60;;
63653;SDS011;49809;47.418;19.080;2023-05-07T13:14:19;1.60;;;1.48;;
63653;SDS011;49809;47.418;19.080;2023-05-07T13:17:23;1.73;;;1.50;;
63653;SDS011;49809;47.418;19.080;2023-05-07T13:20:27;1.92;;;1.60;;
63653;SDS011;49809;47.418;19.080;2023-05-07T13:23:30;1.98;;;1.73;;
63653;SDS011;49809;47.418;19.080;2023-05-07T13:26:33;1.80;;;1.52;;
63653;SDS011;49809;47.418;19.080;2023-05-07T13:29:40;1.75;;;1.40;;
63653;SDS011;49809;47.418;19.080;2023-05-07T13:32:46;1.83;;;1.42;;
63653;SDS011;49809;47.418;19.080;2023-05-07T13:35:54;2.45;;;1.70;;
63653;SDS011;49809;47.418;19.080;2023-05-07T13:39:00;2.50;;;2.08;;
63653;SDS011;49809;47.418;19.080;2023-05-07T13:42:03;1.55;;;1.45;;
63653;SDS011;49809;47.418;19.080;2023-05-07T13:45:07;2.10;;;1.80;;
63653;SDS011;49809;47.418;19.080;2023-05-07T13:48:16;1.70;;;1.50;;
63653;SDS011;49809;47.418;19.080;2023-05-07T13:51:19;1.75;;;1.45;;
63653;SDS011;49809;47.418;19.080;2023-05-07T13:54:23;2.15;;;1.60;;
63653;SDS011;49809;47.418;19.080;2023-05-07T13:57:26;1.85;;;1.58;;
63653;SDS011;49809;47.418;19.080;2023-05-07T14:00:36;1.70;;;1.50;;
63653;SDS011;49809;47.418;19.080;2023-05-07T14:03:42;2.40;;;1.70;;
63653;SDS011;49809;47.418;19.080;2023-05-07T14:06:47;2.03;;;1.62;;
63653;SDS011;49809;47.418;19.080;2023-05-07T14:09:52;2.00;;;1.80;;
63653;SDS011;49809;47.418;19.080;2023-05-07T14:13:28;2.03;;;1.58;;
63653;SDS011;49809;47.418;19.080;2023-05-07T14:16:34;2.50;;;1.60;;
63653;SDS011;49809;47.418;19.080;2023-05-07T14:19:39;3.45;;;1.95;;
63653;SDS011;49809;47.418;19.080;2023-05-07T14:22:44;1.92;;;1.77;;
63653;SDS011;49809;47.418;19.080;2023-05-07T14:25:48;2.12;;;1.60;;
63653;SDS011;49809;47.418;19.080;2023-05-07T14:28:53;2.00;;;1.65;;
63653;SDS011;49809;47.418;19.080;2023-05-07T14:31:57;2.28;;;1.70;;
63653;SDS011;49809;47.418;19.080;2023-05-07T14:35:06;2.87;;;1.80;;
63653;SDS011;49809;47.418;19.080;2023-05-07T14:38:15;2.83;;;1.73;;
63653;SDS011;49809;47.418;19.080;2023-05-07T14:41:19;3.00;;;1.62;;
63653;SDS011;49809;47.418;19.080;2023-05-07T14:47:28;1.70;;;1.60;;
63653;SDS011;49809;47.418;19.080;2023-05-07T14:50:35;2.03;;;1.40;;
63653;SDS011;49809;47.418;19.080;2023-05-07T14:53:46;3.03;;;1.50;;
63653;SDS011;49809;47.418;19.080;2023-05-07T14:56:54;2.83;;;1.70;;
63653;SDS011;49809;47.418;19.080;2023-05-07T14:59:58;2.20;;;1.95;;
63653;SDS011;49809;47.418;19.080;2023-05-07T15:03:07;4.62;;;1.83;;
63653;SDS011;49809;47.418;19.080;2023-05-07T15:06:11;2.30;;;1.83;;
63653;SDS011;49809;47.418;19.080;2023-05-07T15:09:17;2.30;;;1.83;;
63653;SDS011;49809;47.418;19.080;2023-05-07T15:12:20;2.53;;;1.73;;
63653;SDS011;49809;47.418;19.080;2023-05-07T15:15:23;3.87;;;1.90;;
63653;SDS011;49809;47.418;19.080;2023-05-07T15:18:29;2.42;;;2.03;;
63653;SDS011;49809;47.418;19.080;2023-05-07T15:21:38;2.80;;;2.10;;
63653;SDS011;49809;47.418;19.080;2023-05-07T15:24:42;3.45;;;2.25;;
63653;SDS011;49809;47.418;19.080;2023-05-07T15:27:44;3.60;;;1.90;;
63653;SDS011;49809;47.418;19.080;2023-05-07T15:30:47;3.25;;;1.83;;
63653;SDS011;49809;47.418;19.080;2023-05-07T15:33:50;2.70;;;2.35;;
63653;SDS011;49809;47.418;19.080;2023-05-07T15:40:19;3.80;;;2.40;;
63653;SDS011;49809;47.418;19.080;2023-05-07T15:43:22;3.35;;;2.08;;
63653;SDS011;49809;47.418;19.080;2023-05-07T15:46:26;4.55;;;2.65;;
63653;SDS011;49809;47.418;19.080;2023-05-07T15:49:29;3.33;;;2.03;;
63653;SDS011;49809;47.418;19.080;2023-05-07T15:52:34;2.95;;;2.10;;
63653;SDS011;49809;47.418;19.080;2023-05-07T15:55:37;3.05;;;2.30;;
63653;SDS011;49809;47.418;19.080;2023-05-07T15:58:44;2.92;;;2.08;;
63653;SDS011;49809;47.418;19.080;2023-05-07T16:01:50;2.33;;;2.08;;
63653;SDS011;49809;47.418;19.080;2023-05-07T16:04:56;3.35;;;2.00;;
63653;SDS011;49809;47.418;19.080;2023-05-07T16:07:59;2.50;;;1.77;;
63653;SDS011;49809;47.418;19.080;2023-05-07T16:11:18;2.12;;;1.70;;
63653;SDS011;49809;47.418;19.080;2023-05-07T16:14:22;1.48;;;1.37;;
63653;SDS011;49809;47.418;19.080;2023-05-07T16:17:25;2.40;;;1.50;;
63653;SDS011;49809;47.418;19.080;2023-05-07T16:20:31;1.95;;;1.37;;
63653;SDS011;49809;47.418;19.080;2023-05-07T16:23:34;1.80;;;1.60;;
63653;SDS011;49809;47.418;19.080;2023-05-07T16:26:39;1.90;;;1.37;;
63653;SDS011;49809;47.418;19.080;2023-05-07T16:29:45;1.75;;;1.40;;
63653;SDS011;49809;47.418;19.080;2023-05-07T16:32:47;2.95;;;1.40;;
63653;SDS011;49809;47.418;19.080;2023-05-07T16:35:52;1.52;;;1.42;;
63653;SDS011;49809;47.418;19.080;2023-05-07T16:38:55;2.03;;;1.20;;
63653;SDS011;49809;47.418;19.080;2023-05-07T16:42:01;1.85;;;1.12;;
63653;SDS011;49809;47.418;19.080;2023-05-07T16:45:06;5.22;;;1.15;;
63653;SDS011;49809;47.418;19.080;2023-05-07T16:48:35;1.42;;;1.30;;
